Evansville Regional Airport
KEVV : now visible

Airfield :











YOU CAN JOIN US ON...

 
LOGIN :

Register | Disclaimer

   EN    FR    IT 

 









Legend :    VFR   Marginal VFR   IFR   Intensive IFR   Very Intensive IFR
Visi :
Ceiling :
>= 8 km
>= 3000ft
5 to 8 km
1000 to 3000 ft
1500m to 5 km
500 to 1000 ft
800 to 1500m
200 to 500 ft
< 800m
< 200 ft
Symbols :   Thunderstorms  Fog  Heavy snow  Heavy precipitations  Wind > 20 kt






- Airport Elevation : 418 ft
- IATA code : EVV


KEVV - Evansville Regional

CURRENT METAR :
  • 231554Z 12005KT 10SM BKN020 OVC028 23/18 A2993 RMK AO2 SLP132 T02280178

EXPIRED METARs :
  • 231526Z 07005KT 10SM SCT016 BKN029 23/18 A2993 RMK AO2 T02280178
  • 231501Z 11006KT 10SM BKN014 OVC019 22/18 A2994 RMK AO2 T02170178
  • 231354Z 07004KT 9SM -RA BKN009 OVC014 21/18 A2995 RMK AO2 RAB51 SLP137 P0000 T02060178
  • 231315Z 16008KT 10SM BKN008 OVC013 21/18 A2994 RMK AO2 LTG DSNT SE AND W PRESRR T02060183
  • 231305Z 13007KT 10SM SCT008 BKN014 21/18 A2991 RMK AO2 LTG DSNT SE AND W AND NW T02060183
  • 231254Z VRB06KT 10SM BKN014 21/18 A2991 RMK AO2 LTG DSNT SE AND W AND NW SLP124 T02060183
  • 231233Z 09005KT 10SM VCTS FEW009 BKN014 20/18 A2996 RMK AO2 LTG DSNT E-SW T02000183
  • 231208Z 07006KT 9SM SCT007 OVC012 20/18 A2997 RMK AO2 LTG DSNT E-SW T02000183
  • 231154Z 06004KT 9SM VCTS OVC013 20/18 A2998 RMK AO2 LTG DSNT E AND SE SLP149 T02000183 10206 20194 53013
  • 231142Z 35005KT 8SM VCTS OVC012 20/18 A2998 RMK AO2 LTG DSNT E AND SE T02000183
  • 231133Z 08004KT 6SM BR BKN013 OVC090 20/18 A2996 RMK AO2 LTG DSNT SE AND SW T02000183

TAF KEVV
Valid from the 23 at 12:00 until the 24 at 12:00 UTC


231138Z 2312/2412 07004KT 6SM -SHRA BR BKN015
TEMPO 2312/2316 SCT015 BKN050
FM231600 15006KT P6SM BKN025
FM231800 19007KT P6SM BKN035
FM240100 VRB03KT P6SM BKN050
KZID FIR / North America



MET'MAP, your aeronautical weather chart ! - Copyright ORBIFLY December 2007 - Disclaimer

ORBIFLY MET'MAP TEAM :

Programming & Development : Alexandra Zaïnal
Original concept : Baudouin d'Aumeries
Technical & hardware support : Manuel Goepfert
Assistance : Marc-Olivier Méhu




SOURCES & CREDITS :

   NOAA       Earth
Advisory